createdAt,value
2019-02-22T00:01:01.014Z,8.04
2019-02-22T00:02:05.305Z,8.04
2019-02-22T00:03:09.475Z,8.05
2019-02-22T00:04:13.761Z,8.04
2019-02-22T00:05:18.030Z,8.04
2019-02-22T00:06:22.297Z,8.04
2019-02-22T00:07:26.490Z,8.04
2019-02-22T00:08:30.685Z,8.03
2019-02-22T00:09:34.998Z,8.04
2019-02-22T00:10:39.223Z,8.04
2019-02-22T00:11:43.373Z,8.04
2019-02-22T00:12:47.718Z,8.04
2019-02-22T00:13:52.019Z,8.03
2019-02-22T00:14:56.215Z,8.01
2019-02-22T00:16:00.347Z,8.00
2019-02-22T00:17:04.618Z,7.99
2019-02-22T00:18:08.887Z,7.98
2019-02-22T00:19:13.045Z,7.98
2019-02-22T00:20:17.342Z,7.97
2019-02-22T00:21:21.587Z,7.96
2019-02-22T00:22:25.848Z,7.94
2019-02-22T00:23:30.111Z,7.93
2019-02-22T00:24:34.332Z,7.91
2019-02-22T00:25:38.564Z,7.90
2019-02-22T00:26:42.821Z,7.89
2019-02-22T00:27:47.150Z,7.89
2019-02-22T00:28:51.317Z,7.87
2019-02-22T00:29:55.537Z,7.84
2019-02-22T00:30:59.762Z,7.83
2019-02-22T00:32:07.021Z,7.82
2019-02-22T00:33:10.381Z,7.81
2019-02-22T00:34:14.669Z,7.80
2019-02-22T00:35:18.847Z,7.79
2019-02-22T00:36:23.061Z,7.76
2019-02-22T00:37:27.443Z,7.75
2019-02-22T00:38:31.591Z,7.74
2019-02-22T00:39:35.933Z,7.73
2019-02-22T00:40:40.222Z,7.70
2019-02-22T00:41:44.308Z,7.69
2019-02-22T00:42:50.313Z,7.67
2019-02-22T00:43:52.857Z,7.65
2019-02-22T00:44:56.926Z,7.64
2019-02-22T00:46:01.321Z,7.64
2019-02-22T00:47:05.513Z,7.64
2019-02-22T00:48:09.736Z,7.64
2019-02-22T00:49:14.142Z,7.63
2019-02-22T00:50:18.418Z,7.62
2019-02-22T00:51:22.494Z,7.59
2019-02-22T00:52:26.718Z,7.56
2019-02-22T00:53:30.967Z,7.54
2019-02-22T00:54:35.184Z,7.52
2019-02-22T00:55:39.497Z,7.52
2019-02-22T00:56:43.703Z,7.51
2019-02-22T00:57:47.949Z,7.51
2019-02-22T00:58:52.090Z,7.49
2019-02-22T00:59:56.405Z,7.47
2019-02-22T01:01:00.573Z,7.46
2019-02-22T01:02:04.624Z,7.45
2019-02-22T01:03:09.016Z,7.44
2019-02-22T01:04:13.226Z,7.42
2019-02-22T01:05:17.362Z,7.38
2019-02-22T01:06:21.736Z,7.35
2019-02-22T01:07:25.943Z,7.33
2019-02-22T01:08:30.070Z,7.29
2019-02-22T01:09:34.235Z,7.27
2019-02-22T01:10:38.457Z,7.26
2019-02-22T01:11:42.743Z,7.25
2019-02-22T01:12:46.871Z,7.24
2019-02-22T01:13:51.049Z,7.21
2019-02-22T01:14:55.280Z,7.19
2019-02-22T01:15:59.640Z,7.17
2019-02-22T01:17:03.824Z,7.14
2019-02-22T01:18:08.111Z,7.10
2019-02-22T01:19:12.381Z,7.05
2019-02-22T01:20:16.569Z,7.01
2019-02-22T01:21:20.703Z,6.93
2019-02-22T01:22:25.013Z,6.75
2019-02-22T01:23:29.224Z,6.63
2019-02-22T01:24:33.436Z,6.51
2019-02-22T01:25:37.799Z,6.40
2019-02-22T01:26:41.960Z,6.29
2019-02-22T01:27:46.196Z,6.23
2019-02-22T01:28:50.351Z,6.14
2019-02-22T01:29:54.577Z,6.06
2019-02-22T01:30:58.621Z,6.02
2019-02-22T01:32:02.747Z,5.98
2019-02-22T01:33:06.965Z,5.90
2019-02-22T01:34:11.132Z,5.84
2019-02-22T01:35:15.380Z,5.79
2019-02-22T01:36:19.422Z,5.73
2019-02-22T01:37:23.711Z,5.70
2019-02-22T01:38:27.951Z,5.66
2019-02-22T01:39:32.039Z,5.60
2019-02-22T01:40:43.817Z,5.55
2019-02-22T01:41:40.444Z,5.51
2019-02-22T01:42:44.729Z,5.50
2019-02-22T01:43:48.969Z,5.48
2019-02-22T01:44:53.109Z,5.48
2019-02-22T01:45:57.327Z,5.42
2019-02-22T01:47:01.466Z,5.39
2019-02-22T01:48:05.571Z,5.38
2019-02-22T01:49:09.907Z,5.37
2019-02-22T01:50:14.095Z,5.30
2019-02-22T01:51:18.245Z,5.30
2019-02-22T01:52:22.573Z,5.28
2019-02-22T01:53:26.795Z,5.27
2019-02-22T01:54:30.923Z,5.25
2019-02-22T01:55:35.254Z,5.22
2019-02-22T01:56:39.501Z,5.20
2019-02-22T01:57:43.748Z,5.20
2019-02-22T01:58:48.886Z,5.19
2019-02-22T01:59:52.134Z,5.18
2019-02-22T02:00:56.296Z,5.16
2019-02-22T02:02:00.474Z,5.15
2019-02-22T02:03:04.667Z,5.16
2019-02-22T02:04:08.852Z,5.17
2019-02-22T02:05:16.036Z,5.18
2019-02-22T02:06:19.307Z,5.18
2019-02-22T02:07:23.569Z,5.16
2019-02-22T02:08:27.713Z,5.15
2019-02-22T02:09:31.914Z,5.14
2019-02-22T02:10:36.122Z,5.14
2019-02-22T02:11:40.367Z,5.11
2019-02-22T02:12:44.362Z,5.08
2019-02-22T02:13:48.652Z,5.03
2019-02-22T02:14:52.884Z,5.00
2019-02-22T02:15:57.006Z,4.98
2019-02-22T02:17:01.244Z,4.95
2019-02-22T02:18:05.418Z,4.92
2019-02-22T02:19:09.727Z,4.90
2019-02-22T02:20:13.799Z,4.89
2019-02-22T02:21:18.109Z,4.85
2019-02-22T02:22:22.190Z,4.85
2019-02-22T02:23:26.538Z,4.87
2019-02-22T02:24:30.729Z,4.88
2019-02-22T02:25:34.814Z,4.88
2019-02-22T02:26:39.023Z,4.88
2019-02-22T02:27:43.250Z,4.80
2019-02-22T02:28:47.337Z,4.78
2019-02-22T02:29:51.632Z,4.76
2019-02-22T02:30:55.822Z,4.76
2019-02-22T02:32:00.028Z,4.76
2019-02-22T02:33:04.206Z,4.77
2019-02-22T02:34:08.289Z,4.76
2019-02-22T02:35:12.673Z,4.78
2019-02-22T02:36:16.718Z,4.79
2019-02-22T02:37:20.979Z,4.78
2019-02-22T02:38:25.159Z,4.79
2019-02-22T02:39:29.214Z,4.79
2019-02-22T02:40:33.393Z,4.78
2019-02-22T02:41:37.639Z,4.76
2019-02-22T02:42:41.740Z,4.76
2019-02-22T02:43:45.890Z,4.74
2019-02-22T02:44:50.209Z,4.69
2019-02-22T02:45:54.378Z,4.70
2019-02-22T02:46:58.512Z,4.70
2019-02-22T02:48:02.735Z,4.72
2019-02-22T02:49:06.826Z,4.73
2019-02-22T02:50:11.003Z,4.75
2019-02-22T02:51:15.142Z,4.76
2019-02-22T02:52:19.328Z,4.77
2019-02-22T02:53:23.468Z,4.78
2019-02-22T02:54:27.696Z,4.77
2019-02-22T02:55:31.802Z,4.77
2019-02-22T02:56:36.045Z,4.78
2019-02-22T02:57:40.162Z,4.79
2019-02-22T02:58:44.301Z,4.75
2019-02-22T02:59:48.544Z,4.68
2019-02-22T03:00:52.900Z,4.67
2019-02-22T03:01:57.090Z,4.61
2019-02-22T03:03:01.079Z,4.61
2019-02-22T03:04:05.461Z,4.60
2019-02-22T03:05:09.720Z,4.58
2019-02-22T03:06:13.906Z,4.58
2019-02-22T03:07:18.140Z,4.56
2019-02-22T03:08:22.280Z,4.51
2019-02-22T03:09:26.498Z,4.52
2019-02-22T03:10:31.536Z,4.46
2019-02-22T03:11:34.793Z,4.43
2019-02-22T03:12:38.883Z,4.42
2019-02-22T03:13:43.167Z,4.42
2019-02-22T03:14:47.182Z,4.41
2019-02-22T03:15:51.398Z,4.41
2019-02-22T03:16:55.617Z,4.40
2019-02-22T03:17:59.894Z,4.37
2019-02-22T03:19:04.012Z,4.37
2019-02-22T03:20:08.167Z,4.34
2019-02-22T03:21:12.373Z,4.36
2019-02-22T03:22:16.507Z,4.37
2019-02-22T03:23:20.736Z,4.38
2019-02-22T03:24:24.844Z,4.38
2019-02-22T03:25:29.182Z,4.39
2019-02-22T03:26:33.336Z,4.36
2019-02-22T03:27:37.453Z,4.36
2019-02-22T03:28:41.608Z,4.34
2019-02-22T03:29:45.827Z,4.32
2019-02-22T03:30:49.935Z,4.31
2019-02-22T03:31:54.054Z,4.31
2019-02-22T03:32:58.347Z,4.30
2019-02-22T03:34:02.551Z,4.29
2019-02-22T03:35:06.591Z,4.29
2019-02-22T03:36:10.759Z,4.27
2019-02-22T03:37:14.924Z,4.26
2019-02-22T03:38:19.082Z,4.27
2019-02-22T03:39:23.419Z,4.28
2019-02-22T03:40:30.472Z,4.29
2019-02-22T03:41:33.733Z,4.28
2019-02-22T03:42:37.798Z,4.28
2019-02-22T03:43:42.037Z,4.29
2019-02-22T03:44:46.213Z,4.26
2019-02-22T03:45:50.401Z,4.19
2019-02-22T03:46:54.578Z,4.16
2019-02-22T03:47:58.711Z,4.14
2019-02-22T03:49:02.969Z,4.13
2019-02-22T03:50:07.150Z,4.13
2019-02-22T03:51:11.359Z,4.14
2019-02-22T03:52:15.413Z,4.15
2019-02-22T03:53:19.518Z,4.12
2019-02-22T03:54:23.887Z,4.09
2019-02-22T03:55:28.130Z,4.06
2019-02-22T03:56:32.145Z,4.05
2019-02-22T03:57:36.384Z,4.04
2019-02-22T03:58:40.715Z,4.02
2019-02-22T03:59:44.973Z,4.01
2019-02-22T04:00:49.024Z,4.00
2019-02-22T04:01:53.166Z,3.98
2019-02-22T04:02:57.282Z,3.98
2019-02-22T04:04:01.462Z,3.96
2019-02-22T04:05:05.568Z,3.95
2019-02-22T04:06:09.838Z,3.94
2019-02-22T04:07:13.844Z,3.91
2019-02-22T04:08:18.121Z,3.90
2019-02-22T04:09:22.276Z,3.90
2019-02-22T04:10:26.622Z,3.88
2019-02-22T04:11:30.665Z,3.87
2019-02-22T04:12:34.975Z,3.87
2019-02-22T04:13:39.392Z,3.88
2019-02-22T04:14:43.420Z,3.88
2019-02-22T04:15:47.562Z,3.86
2019-02-22T04:16:51.803Z,3.85
2019-02-22T04:17:56.038Z,3.86
2019-02-22T04:19:00.223Z,3.87
2019-02-22T04:20:04.244Z,3.87
2019-02-22T04:21:08.452Z,3.86
2019-02-22T04:22:12.681Z,3.86
2019-02-22T04:23:16.742Z,3.86
2019-02-22T04:24:21.161Z,3.88
2019-02-22T04:25:25.230Z,3.88
2019-02-22T04:26:29.355Z,3.87
2019-02-22T04:27:33.582Z,3.87
2019-02-22T04:28:37.680Z,3.87
2019-02-22T04:29:41.857Z,3.86
2019-02-22T04:30:45.986Z,3.85
2019-02-22T04:31:50.226Z,3.85
2019-02-22T04:32:54.331Z,3.83
2019-02-22T04:33:58.570Z,3.83
2019-02-22T04:35:02.696Z,3.82
2019-02-22T04:36:06.959Z,3.76
2019-02-22T04:37:11.169Z,3.67
2019-02-22T04:38:15.229Z,3.62
2019-02-22T04:39:19.385Z,3.62
2019-02-22T04:40:23.631Z,3.65
2019-02-22T04:41:27.902Z,3.60
2019-02-22T04:42:31.851Z,3.62
2019-02-22T04:43:36.184Z,3.58
2019-02-22T04:44:40.311Z,3.61
2019-02-22T04:45:44.516Z,3.65
2019-02-22T04:46:48.634Z,3.68
2019-02-22T04:47:52.728Z,3.68
2019-02-22T04:48:56.990Z,3.71
2019-02-22T04:50:01.111Z,3.71
2019-02-22T04:51:05.374Z,3.69
2019-02-22T04:52:09.511Z,3.68
2019-02-22T04:53:13.732Z,3.69
2019-02-22T04:54:17.944Z,3.64
2019-02-22T04:55:22.051Z,3.63
2019-02-22T04:56:26.281Z,3.65
2019-02-22T04:57:30.464Z,3.65
2019-02-22T04:58:34.467Z,3.67
2019-02-22T04:59:38.764Z,3.67
2019-02-22T05:00:42.972Z,3.63
2019-02-22T05:01:47.185Z,3.59
2019-02-22T05:02:51.367Z,3.60
2019-02-22T05:03:55.373Z,3.62
2019-02-22T05:04:59.675Z,3.63
2019-02-22T05:06:03.847Z,3.64
2019-02-22T05:07:08.043Z,3.65
2019-02-22T05:08:12.264Z,3.65
2019-02-22T05:09:19.517Z,3.63
2019-02-22T05:10:22.777Z,3.58
2019-02-22T05:11:26.956Z,3.58
2019-02-22T05:12:30.959Z,3.60
2019-02-22T05:13:35.204Z,3.62
2019-02-22T05:14:39.440Z,3.64
2019-02-22T05:15:43.622Z,3.62
2019-02-22T05:16:47.699Z,3.61
2019-02-22T05:17:51.844Z,3.62
2019-02-22T05:18:56.092Z,3.63
2019-02-22T05:20:00.351Z,3.63
2019-02-22T05:21:04.528Z,3.63
2019-02-22T05:22:08.752Z,3.63
2019-02-22T05:23:12.982Z,3.62
2019-02-22T05:24:17.229Z,3.61
2019-02-22T05:25:21.325Z,3.61
2019-02-22T05:26:25.550Z,3.62
2019-02-22T05:27:29.618Z,3.62
2019-02-22T05:28:33.854Z,3.58
2019-02-22T05:29:37.813Z,3.59
2019-02-22T05:30:41.947Z,3.58
2019-02-22T05:31:46.202Z,3.58
2019-02-22T05:32:50.389Z,3.60
2019-02-22T05:33:54.575Z,3.58
2019-02-22T05:34:58.630Z,3.59
2019-02-22T05:36:02.807Z,3.59
2019-02-22T05:37:07.050Z,3.59
2019-02-22T05:38:11.246Z,3.62
2019-02-22T05:39:19.041Z,3.64
2019-02-22T05:40:19.686Z,3.66
2019-02-22T05:41:23.863Z,3.68
2019-02-22T05:42:28.780Z,3.68
2019-02-22T05:43:32.057Z,3.62
2019-02-22T05:44:36.252Z,3.58
2019-02-22T05:45:40.502Z,3.57
2019-02-22T05:46:44.500Z,3.55
2019-02-22T05:47:48.803Z,3.55
2019-02-22T05:48:52.906Z,3.51
2019-02-22T05:49:57.024Z,3.52
2019-02-22T05:51:01.291Z,3.53
2019-02-22T05:52:05.357Z,3.55
2019-02-22T05:53:09.425Z,3.57
2019-02-22T05:54:13.722Z,3.58
2019-02-22T05:55:17.789Z,3.57
2019-02-22T05:56:21.935Z,3.57
2019-02-22T05:57:26.189Z,3.56
2019-02-22T05:58:30.372Z,3.52
2019-02-22T05:59:34.548Z,3.50
2019-02-22T06:00:38.678Z,3.50
2019-02-22T06:01:42.856Z,3.50
2019-02-22T06:02:47.145Z,3.50
2019-02-22T06:03:51.063Z,3.49
2019-02-22T06:04:55.212Z,3.44
2019-02-22T06:05:59.482Z,3.45
2019-02-22T06:07:03.587Z,3.45
2019-02-22T06:08:08.931Z,3.44
2019-02-22T06:09:11.875Z,3.44
2019-02-22T06:10:16.101Z,3.42
2019-02-22T06:11:20.238Z,3.42
2019-02-22T06:12:34.255Z,3.43
2019-02-22T06:13:28.542Z,3.44
2019-02-22T06:14:32.802Z,3.46
2019-02-22T06:15:36.948Z,3.46
2019-02-22T06:16:41.143Z,3.38
2019-02-22T06:17:45.104Z,3.40
2019-02-22T06:18:49.408Z,3.42
2019-02-22T06:19:53.525Z,3.41
2019-02-22T06:20:57.701Z,3.39
2019-02-22T06:22:01.873Z,3.36
2019-02-22T06:23:06.018Z,3.25
2019-02-22T06:24:10.141Z,3.24
2019-02-22T06:25:14.360Z,3.22
2019-02-22T06:26:18.441Z,3.24
2019-02-22T06:27:22.705Z,3.25
2019-02-22T06:28:26.693Z,3.25
2019-02-22T06:29:30.879Z,3.24
2019-02-22T06:30:35.088Z,3.27
2019-02-22T06:31:39.230Z,3.29
2019-02-22T06:32:43.326Z,3.30
2019-02-22T06:33:47.517Z,3.32
2019-02-22T06:34:51.705Z,3.29
2019-02-22T06:35:55.772Z,3.25
2019-02-22T06:37:02.100Z,3.24
2019-02-22T06:38:04.125Z,3.24
2019-02-22T06:39:08.172Z,3.23
2019-02-22T06:40:12.363Z,3.21
2019-02-22T06:41:16.603Z,3.21
2019-02-22T06:42:20.828Z,3.20
2019-02-22T06:43:24.869Z,3.20
2019-02-22T06:44:29.062Z,3.20
2019-02-22T06:45:33.100Z,3.18
2019-02-22T06:46:37.274Z,3.20
2019-02-22T06:47:41.312Z,3.19
2019-02-22T06:48:45.539Z,3.19
2019-02-22T06:49:49.759Z,3.21
2019-02-22T06:50:53.788Z,3.23
2019-02-22T06:51:58.024Z,3.23
2019-02-22T06:53:02.215Z,3.22
2019-02-22T06:54:06.305Z,3.20
2019-02-22T06:55:10.536Z,3.22
2019-02-22T06:56:14.711Z,3.24
2019-02-22T06:57:18.916Z,3.27
2019-02-22T06:58:22.981Z,3.29
2019-02-22T06:59:27.213Z,3.32
2019-02-22T07:00:31.318Z,3.32
2019-02-22T07:01:35.384Z,3.34
2019-02-22T07:02:39.701Z,3.28
2019-02-22T07:03:43.886Z,3.29
2019-02-22T07:04:48.080Z,3.29
2019-02-22T07:05:52.236Z,3.30
2019-02-22T07:06:56.448Z,3.33
2019-02-22T07:08:00.657Z,3.24
2019-02-22T07:09:04.814Z,3.23
2019-02-22T07:10:08.999Z,3.20
2019-02-22T07:11:13.164Z,3.16
2019-02-22T07:12:17.324Z,3.12
2019-02-22T07:13:21.455Z,3.08
2019-02-22T07:14:25.668Z,3.08
2019-02-22T07:15:29.845Z,3.13
2019-02-22T07:16:34.027Z,3.16
2019-02-22T07:17:38.252Z,3.17
2019-02-22T07:18:42.330Z,3.19
2019-02-22T07:19:46.503Z,3.22
2019-02-22T07:20:50.602Z,3.21
2019-02-22T07:21:54.785Z,3.17
2019-02-22T07:22:58.899Z,3.13
2019-02-22T07:24:02.980Z,3.16
2019-02-22T07:25:07.237Z,3.18
2019-02-22T07:26:11.306Z,3.20
2019-02-22T07:27:15.339Z,3.22
2019-02-22T07:28:19.662Z,3.23
2019-02-22T07:29:23.742Z,3.20
2019-02-22T07:30:27.875Z,3.20
2019-02-22T07:31:31.999Z,3.21
2019-02-22T07:32:36.151Z,3.20
2019-02-22T07:33:40.288Z,3.24
2019-02-22T07:34:44.514Z,3.28
2019-02-22T07:35:48.703Z,3.31
2019-02-22T07:36:52.817Z,3.29
2019-02-22T07:37:57.035Z,3.32
2019-02-22T07:39:01.228Z,3.34
2019-02-22T07:40:05.371Z,3.29
2019-02-22T07:41:09.545Z,3.33
2019-02-22T07:42:13.617Z,3.35
2019-02-22T07:43:17.877Z,3.31
2019-02-22T07:44:21.986Z,3.31
2019-02-22T07:45:26.210Z,3.33
2019-02-22T07:46:30.337Z,3.31
2019-02-22T07:47:34.376Z,3.32
2019-02-22T07:48:38.646Z,3.36
2019-02-22T07:49:42.814Z,3.38
2019-02-22T07:50:56.908Z,3.38
2019-02-22T07:51:51.154Z,3.41
2019-02-22T07:52:55.393Z,3.44
2019-02-22T07:53:59.442Z,3.48
2019-02-22T07:55:03.692Z,3.47
2019-02-22T07:56:07.811Z,3.44
2019-02-22T07:57:11.947Z,3.48
2019-02-22T07:58:16.092Z,3.44
2019-02-22T07:59:20.299Z,3.46
2019-02-22T08:00:24.483Z,3.50
2019-02-22T08:01:28.650Z,3.57
2019-02-22T08:02:32.831Z,3.60
2019-02-22T08:03:37.474Z,3.62
2019-02-22T08:04:41.112Z,3.55
2019-02-22T08:05:45.266Z,3.53
2019-02-22T08:06:49.505Z,3.47
2019-02-22T08:07:53.610Z,3.45
2019-02-22T08:08:57.756Z,3.40
2019-02-22T08:10:01.880Z,3.41
2019-02-22T08:11:05.953Z,3.46
2019-02-22T08:12:10.234Z,3.50
2019-02-22T08:13:19.796Z,3.45
2019-02-22T08:14:18.560Z,3.49
2019-02-22T08:15:22.680Z,3.55
2019-02-22T08:16:26.903Z,3.62
2019-02-22T08:17:34.100Z,3.65
2019-02-22T08:18:37.392Z,3.67
2019-02-22T08:19:41.546Z,3.72
2019-02-22T08:20:45.711Z,3.78
2019-02-22T08:21:49.790Z,3.75
2019-02-22T08:22:53.848Z,3.74
2019-02-22T08:23:58.008Z,3.74
2019-02-22T08:25:02.183Z,3.76
2019-02-22T08:26:06.344Z,3.78
2019-02-22T08:27:10.485Z,3.81
2019-02-22T08:28:14.714Z,3.76
2019-02-22T08:29:18.852Z,3.80
2019-02-22T08:30:23.063Z,3.81
2019-02-22T08:31:27.277Z,3.85
2019-02-22T08:32:31.469Z,3.90
2019-02-22T08:33:35.698Z,3.89
2019-02-22T08:34:39.904Z,3.89
2019-02-22T08:35:43.898Z,3.91
2019-02-22T08:36:48.178Z,3.88
2019-02-22T08:37:52.313Z,3.80
2019-02-22T08:38:56.429Z,3.81
2019-02-22T08:40:02.275Z,3.82
2019-02-22T08:41:04.712Z,3.82
2019-02-22T08:42:08.851Z,3.81
2019-02-22T08:43:12.895Z,3.82
2019-02-22T08:44:16.991Z,3.85
2019-02-22T08:45:21.253Z,3.86
2019-02-22T08:46:25.436Z,3.90
2019-02-22T08:47:29.560Z,3.95
2019-02-22T08:48:33.615Z,3.92
2019-02-22T08:49:37.909Z,3.88
2019-02-22T08:50:41.980Z,3.82
2019-02-22T08:51:46.145Z,3.81
2019-02-22T08:52:50.289Z,3.79
2019-02-22T08:53:54.490Z,3.77
2019-02-22T08:54:58.689Z,3.70
2019-02-22T08:56:02.794Z,3.70
2019-02-22T08:57:06.949Z,3.75
2019-02-22T08:58:11.127Z,3.80
2019-02-22T08:59:15.286Z,3.83
2019-02-22T09:00:19.515Z,3.86
2019-02-22T09:01:23.703Z,3.92
2019-02-22T09:02:27.777Z,3.97
2019-02-22T09:03:31.969Z,4.03
2019-02-22T09:04:35.973Z,4.09
2019-02-22T09:05:40.101Z,4.12
2019-02-22T09:06:44.279Z,4.15
2019-02-22T09:07:48.547Z,4.15
2019-02-22T09:08:52.733Z,4.11
2019-02-22T09:09:56.881Z,4.01
2019-02-22T09:11:01.043Z,3.92
2019-02-22T09:12:05.218Z,3.93
2019-02-22T09:13:09.388Z,3.96
2019-02-22T09:14:13.568Z,4.00
2019-02-22T09:15:17.657Z,4.06
2019-02-22T09:16:21.800Z,4.10
2019-02-22T09:17:25.955Z,4.14
2019-02-22T09:18:30.156Z,4.20
2019-02-22T09:19:34.385Z,4.26
2019-02-22T09:20:38.554Z,4.31
2019-02-22T09:21:42.686Z,4.33
2019-02-22T09:22:46.842Z,4.35
2019-02-22T09:23:51.050Z,4.30
2019-02-22T09:24:55.245Z,4.21
2019-02-22T09:25:59.414Z,4.24
2019-02-22T09:27:03.550Z,4.24
2019-02-22T09:28:07.714Z,4.19
2019-02-22T09:29:11.756Z,4.10
2019-02-22T09:30:15.970Z,4.00
2019-02-22T09:31:19.990Z,3.98
2019-02-22T09:32:24.090Z,3.92
2019-02-22T09:33:28.173Z,3.92
2019-02-22T09:34:32.505Z,3.95
2019-02-22T09:35:36.485Z,4.00
2019-02-22T09:36:40.785Z,4.04
2019-02-22T09:37:44.953Z,4.05
2019-02-22T09:38:49.171Z,4.08
2019-02-22T09:39:53.311Z,4.10
2019-02-22T09:40:57.415Z,4.14
2019-02-22T09:42:01.706Z,4.16
2019-02-22T09:43:05.779Z,4.22
2019-02-22T09:44:10.034Z,4.31
2019-02-22T09:45:14.264Z,4.38
2019-02-22T09:46:18.342Z,4.46
2019-02-22T09:47:22.504Z,4.47
2019-02-22T09:48:26.752Z,4.43
2019-02-22T09:49:30.964Z,4.45
2019-02-22T09:50:35.044Z,4.45
2019-02-22T09:51:41.188Z,4.44
2019-02-22T09:52:43.429Z,4.46
2019-02-22T09:53:50.599Z,4.47
2019-02-22T09:54:53.717Z,4.40
2019-02-22T09:56:00.809Z,4.37
2019-02-22T09:57:03.998Z,4.36
2019-02-22T09:58:08.089Z,4.40
2019-02-22T09:59:12.291Z,4.44
2019-02-22T10:00:16.434Z,4.41
2019-02-22T10:01:20.508Z,4.39
2019-02-22T10:02:24.695Z,4.38
2019-02-22T10:03:28.896Z,4.29
2019-02-22T10:04:33.098Z,4.17
2019-02-22T10:05:37.190Z,4.08
2019-02-22T10:06:41.437Z,3.99
2019-02-22T10:07:45.594Z,4.01
2019-02-22T10:08:49.744Z,4.03
2019-02-22T10:09:53.948Z,4.04
2019-02-22T10:10:58.015Z,4.06
2019-02-22T10:12:02.182Z,4.08
2019-02-22T10:13:06.402Z,4.05
2019-02-22T10:14:10.556Z,3.99
2019-02-22T10:15:14.787Z,4.01
2019-02-22T10:16:18.846Z,4.00
2019-02-22T10:17:23.078Z,4.05
2019-02-22T10:18:27.192Z,4.10
2019-02-22T10:19:31.347Z,4.16
2019-02-22T10:20:35.484Z,4.21
2019-02-22T10:21:39.681Z,4.26
2019-02-22T10:22:43.814Z,4.30
2019-02-22T10:23:48.044Z,4.29
2019-02-22T10:24:52.245Z,4.31
2019-02-22T10:25:56.457Z,4.38
2019-02-22T10:27:00.640Z,4.44
2019-02-22T10:28:04.798Z,4.49
2019-02-22T10:29:08.989Z,4.53
2019-02-22T10:30:13.204Z,4.59
2019-02-22T10:31:17.385Z,4.64
2019-02-22T10:32:21.601Z,4.64
2019-02-22T10:33:35.991Z,4.67
2019-02-22T10:34:29.890Z,4.71
2019-02-22T10:35:34.128Z,4.69
2019-02-22T10:36:45.276Z,4.74
2019-02-22T10:37:42.413Z,4.79
2019-02-22T10:38:46.600Z,4.83
2019-02-22T10:39:50.817Z,4.87
2019-02-22T10:40:54.972Z,4.90
2019-02-22T10:41:59.112Z,4.94
2019-02-22T10:43:03.277Z,4.94
2019-02-22T10:44:17.428Z,4.91
2019-02-22T10:45:11.514Z,4.83
2019-02-22T10:46:15.815Z,4.72
2019-02-22T10:47:19.866Z,4.67
2019-02-22T10:48:24.001Z,4.60
2019-02-22T10:49:28.236Z,4.51
2019-02-22T10:50:32.455Z,4.40
2019-02-22T10:51:36.633Z,4.43
2019-02-22T10:52:40.807Z,4.49
2019-02-22T10:53:44.931Z,4.55
2019-02-22T10:54:49.005Z,4.52
2019-02-22T10:55:53.362Z,4.54
2019-02-22T10:56:57.477Z,4.59
2019-02-22T10:58:01.687Z,4.58
2019-02-22T10:59:05.860Z,4.55
2019-02-22T11:00:09.975Z,4.53
2019-02-22T11:01:14.221Z,4.55
2019-02-22T11:02:18.350Z,4.47
2019-02-22T11:03:22.502Z,4.37
2019-02-22T11:04:26.713Z,4.34
2019-02-22T11:05:30.809Z,4.36
2019-02-22T11:06:35.007Z,4.39
2019-02-22T11:07:39.158Z,4.39
2019-02-22T11:08:43.298Z,4.41
2019-02-22T11:09:47.468Z,4.51
2019-02-22T11:10:51.614Z,4.61
2019-02-22T11:11:55.792Z,4.66
2019-02-22T11:13:00.034Z,4.75
2019-02-22T11:14:04.073Z,4.86
2019-02-22T11:15:08.268Z,4.96
2019-02-22T11:16:12.499Z,5.04
2019-02-22T11:17:16.698Z,5.12
2019-02-22T11:18:20.782Z,5.18
2019-02-22T11:19:24.978Z,5.23
2019-02-22T11:20:29.120Z,5.28
2019-02-22T11:21:33.218Z,5.33
2019-02-22T11:22:37.424Z,5.37
2019-02-22T11:23:41.688Z,5.43
2019-02-22T11:24:45.774Z,5.46
2019-02-22T11:25:49.970Z,5.48
2019-02-22T11:26:54.200Z,5.51
2019-02-22T11:27:58.414Z,5.54
2019-02-22T11:29:02.559Z,5.54
2019-02-22T11:30:06.838Z,5.53
2019-02-22T11:31:11.044Z,5.51
2019-02-22T11:32:15.261Z,5.53
2019-02-22T11:33:19.530Z,5.61
2019-02-22T11:34:23.699Z,5.66
2019-02-22T11:35:27.906Z,5.66
2019-02-22T11:36:32.148Z,5.67
2019-02-22T11:37:36.273Z,5.57
2019-02-22T11:38:40.574Z,5.45
2019-02-22T11:39:44.750Z,5.43
2019-02-22T11:40:48.858Z,5.34
2019-02-22T11:41:53.161Z,5.34
2019-02-22T11:42:57.329Z,5.30
2019-02-22T11:44:01.522Z,5.22
2019-02-22T11:45:05.745Z,5.19
2019-02-22T11:46:10.103Z,5.23
2019-02-22T11:47:14.264Z,5.24
2019-02-22T11:48:18.430Z,5.26
2019-02-22T11:49:22.683Z,5.30
2019-02-22T11:50:26.810Z,5.39
2019-02-22T11:51:31.124Z,5.48
2019-02-22T11:52:35.356Z,5.60
2019-02-22T11:53:39.550Z,5.59
2019-02-22T11:54:43.927Z,5.53
2019-02-22T11:55:48.155Z,5.55
2019-02-22T11:56:52.412Z,5.63
2019-02-22T11:57:56.582Z,5.69
2019-02-22T11:59:00.877Z,5.65
2019-02-22T12:00:05.037Z,5.78
2019-02-22T12:01:10.271Z,5.89
2019-02-22T12:02:14.205Z,5.95
2019-02-22T12:03:24.513Z,6.07
2019-02-22T12:04:22.474Z,6.10
2019-02-22T12:05:26.762Z,6.06
2019-02-22T12:06:30.990Z,6.10
2019-02-22T12:07:35.331Z,6.18
2019-02-22T12:08:39.611Z,6.25
2019-02-22T12:09:43.800Z,6.35
2019-02-22T12:10:48.085Z,6.46
2019-02-22T12:11:52.299Z,6.56
2019-02-22T12:12:59.563Z,6.61
2019-02-22T12:14:02.837Z,6.58
2019-02-22T12:15:07.039Z,6.55
2019-02-22T12:16:11.340Z,6.58
2019-02-22T12:17:15.574Z,6.64
2019-02-22T12:18:19.844Z,6.66
2019-02-22T12:19:24.055Z,6.61
2019-02-22T12:20:28.179Z,6.66
2019-02-22T12:21:32.484Z,6.69
2019-02-22T12:22:36.695Z,6.74
2019-02-22T12:23:40.851Z,6.74
2019-02-22T12:24:45.087Z,6.82
2019-02-22T12:25:49.143Z,6.83
2019-02-22T12:26:53.504Z,6.90
2019-02-22T12:27:57.820Z,6.85
2019-02-22T12:29:01.796Z,6.86
2019-02-22T12:30:06.152Z,6.87
2019-02-22T12:31:10.350Z,6.87
2019-02-22T12:32:14.579Z,6.90
2019-02-22T12:33:18.803Z,6.91
2019-02-22T12:34:23.061Z,6.84
2019-02-22T12:35:27.234Z,6.93
2019-02-22T12:36:31.487Z,6.72
2019-02-22T12:37:35.736Z,6.63
2019-02-22T12:38:40.818Z,6.55
2019-02-22T12:39:44.682Z,6.60
2019-02-22T12:40:48.881Z,6.68
2019-02-22T12:41:53.754Z,6.83
2019-02-22T12:42:57.410Z,6.93
2019-02-22T12:44:02.509Z,7.06
2019-02-22T12:45:06.435Z,7.16
2019-02-22T12:46:10.599Z,7.23
2019-02-22T12:47:14.864Z,7.32
2019-02-22T12:48:19.165Z,7.43
2019-02-22T12:49:23.291Z,7.50
2019-02-22T12:50:27.607Z,7.51
2019-02-22T12:51:31.851Z,7.46
2019-02-22T12:52:36.119Z,7.41
2019-02-22T12:53:40.259Z,7.45
2019-02-22T12:54:44.522Z,7.46
2019-02-22T12:55:48.781Z,7.49
2019-02-22T12:56:57.668Z,7.47
2019-02-22T12:57:57.213Z,7.45
2019-02-22T12:59:01.436Z,7.41
2019-02-22T13:00:05.694Z,7.37
2019-02-22T13:01:09.939Z,7.40
2019-02-22T13:02:14.103Z,7.43
2019-02-22T13:03:18.330Z,7.47
2019-02-22T13:04:22.609Z,7.48
2019-02-22T13:05:26.826Z,7.46
2019-02-22T13:06:30.996Z,7.46
2019-02-22T13:07:35.228Z,7.49
2019-02-22T13:08:39.361Z,7.47
2019-02-22T13:09:43.670Z,7.43
2019-02-22T13:10:47.799Z,7.41
2019-02-22T13:11:51.990Z,7.38
2019-02-22T13:12:56.270Z,7.37
2019-02-22T13:14:00.411Z,7.48
2019-02-22T13:15:13.561Z,7.55
2019-02-22T13:16:08.996Z,7.54
2019-02-22T13:17:13.289Z,7.57
2019-02-22T13:18:18.408Z,7.60
2019-02-22T13:19:22.165Z,7.56
2019-02-22T13:20:26.326Z,7.48
2019-02-22T13:21:31.582Z,7.47
2019-02-22T13:22:35.469Z,7.45
2019-02-22T13:23:40.519Z,7.52
2019-02-22T13:24:44.383Z,7.60
2019-02-22T13:25:48.669Z,7.48
2019-02-22T13:26:52.880Z,7.52
2019-02-22T13:27:57.134Z,7.44
2019-02-22T13:29:01.439Z,7.23
2019-02-22T13:30:05.540Z,7.02
2019-02-22T13:31:09.763Z,6.94
2019-02-22T13:32:14.026Z,6.95
2019-02-22T13:33:18.299Z,6.84
2019-02-22T13:34:22.497Z,6.90
2019-02-22T13:35:26.797Z,7.01
2019-02-22T13:36:30.964Z,7.20
2019-02-22T13:37:35.165Z,7.38
2019-02-22T13:38:40.440Z,7.49
2019-02-22T13:39:44.153Z,7.51
2019-02-22T13:40:49.687Z,7.60
2019-02-22T13:41:52.491Z,7.58
2019-02-22T13:42:56.859Z,7.55
2019-02-22T13:44:01.061Z,7.52
2019-02-22T13:45:05.243Z,7.23
2019-02-22T13:46:09.414Z,6.86
2019-02-22T13:47:13.785Z,6.75
2019-02-22T13:48:17.994Z,6.85
2019-02-22T13:49:22.173Z,6.96
2019-02-22T13:50:26.355Z,7.03
2019-02-22T13:51:30.656Z,7.11
2019-02-22T13:52:34.799Z,7.19
2019-02-22T13:53:39.106Z,7.17
2019-02-22T13:54:44.354Z,7.25
2019-02-22T13:55:47.542Z,7.23
2019-02-22T13:56:51.799Z,7.23
2019-02-22T13:57:55.914Z,7.26
2019-02-22T13:59:00.122Z,7.29
2019-02-22T14:00:04.332Z,7.33
2019-02-22T14:01:08.447Z,7.15
2019-02-22T14:02:12.767Z,6.91
2019-02-22T14:03:17.030Z,6.80
2019-02-22T14:04:21.227Z,6.84
2019-02-22T14:05:25.344Z,6.92
2019-02-22T14:06:29.510Z,6.89
2019-02-22T14:07:33.687Z,6.95
2019-02-22T14:08:37.996Z,6.99
2019-02-22T14:09:42.196Z,7.04
2019-02-22T14:10:46.434Z,7.06
2019-02-22T14:11:50.553Z,7.04
2019-02-22T14:12:54.832Z,7.07
2019-02-22T14:13:59.085Z,7.04
2019-02-22T14:15:03.209Z,6.83